sensor_id;sensor_type;location;lat;lon;timestamp;temperature;humidity
5870;DHT22;2961;47.702;9.410;2023-02-21T00:02:08;-0.20;99.90
5870;DHT22;2961;47.702;9.410;2023-02-21T00:04:53;-0.30;99.90
5870;DHT22;2961;47.702;9.410;2023-02-21T00:07:37;-0.50;99.90
5870;DHT22;2961;47.702;9.410;2023-02-21T00:10:21;-0.30;99.90
5870;DHT22;2961;47.702;9.410;2023-02-21T00:13:07;0.00;99.90
5870;DHT22;2961;47.702;9.410;2023-02-21T00:15:51;-0.10;99.90
5870;DHT22;2961;47.702;9.410;2023-02-21T00:18:36;-0.60;99.90
5870;DHT22;2961;47.702;9.410;2023-02-21T00:21:20;-0.30;99.90
5870;DHT22;2961;47.702;9.410;2023-02-21T00:24:05;-0.60;99.90
5870;DHT22;2961;47.702;9.410;2023-02-21T00:26:50;-0.50;99.90
5870;DHT22;2961;47.702;9.410;2023-02-21T00:29:35;-0.20;99.90
5870;DHT22;2961;47.702;9.410;2023-02-21T00:32:19;-0.60;99.90
5870;DHT22;2961;47.702;9.410;2023-02-21T00:35:04;-0.60;99.90
5870;DHT22;2961;47.702;9.410;2023-02-21T00:37:49;-0.40;99.90
5870;DHT22;2961;47.702;9.410;2023-02-21T00:40:34;-0.40;99.90
5870;DHT22;2961;47.702;9.410;2023-02-21T00:43:18;-0.60;99.90
5870;DHT22;2961;47.702;9.410;2023-02-21T00:46:04;-0.60;99.90
5870;DHT22;2961;47.702;9.410;2023-02-21T00:48:48;-0.70;99.90
5870;DHT22;2961;47.702;9.410;2023-02-21T00:51:32;-0.70;99.90
5870;DHT22;2961;47.702;9.410;2023-02-21T00:54:16;-0.70;99.90
5870;DHT22;2961;47.702;9.410;2023-02-21T00:57:00;-0.70;99.90
5870;DHT22;2961;47.702;9.410;2023-02-21T00:59:44;-0.70;99.90
5870;DHT22;2961;47.702;9.410;2023-02-21T01:02:30;-0.70;99.90
5870;DHT22;2961;47.702;9.410;2023-02-21T01:05:14;-0.70;99.90
5870;DHT22;2961;47.702;9.410;2023-02-21T01:07:59;-0.70;99.90
5870;DHT22;2961;47.702;9.410;2023-02-21T01:10:43;-0.80;99.90
5870;DHT22;2961;47.702;9.410;2023-02-21T01:13:27;-0.90;99.90
5870;DHT22;2961;47.702;9.410;2023-02-21T01:16:11;-0.90;99.90
5870;DHT22;2961;47.702;9.410;2023-02-21T01:18:57;-0.90;99.90
5870;DHT22;2961;47.702;9.410;2023-02-21T01:21:41;-1.00;99.90
5870;DHT22;2961;47.702;9.410;2023-02-21T01:24:25;-1.00;99.90
5870;DHT22;2961;47.702;9.410;2023-02-21T01:27:09;-1.00;99.90
5870;DHT22;2961;47.702;9.410;2023-02-21T01:29:53;-1.00;99.90
5870;DHT22;2961;47.702;9.410;2023-02-21T01:32:37;-1.10;99.90
5870;DHT22;2961;47.702;9.410;2023-02-21T01:35:23;-1.00;99.90
5870;DHT22;2961;47.702;9.410;2023-02-21T01:38:07;-1.10;99.90
5870;DHT22;2961;47.702;9.410;2023-02-21T01:40:51;-1.10;99.90
5870;DHT22;2961;47.702;9.410;2023-02-21T01:43:35;-1.20;99.90
5870;DHT22;2961;47.702;9.410;2023-02-21T01:46:20;-1.20;99.90
5870;DHT22;2961;47.702;9.410;2023-02-21T01:49:06;-1.30;99.90
5870;DHT22;2961;47.702;9.410;2023-02-21T01:51:54;-1.30;99.90
5870;DHT22;2961;47.702;9.410;2023-02-21T01:54:41;-1.20;99.90
5870;DHT22;2961;47.702;9.410;2023-02-21T01:57:27;-1.10;99.90
5870;DHT22;2961;47.702;9.410;2023-02-21T02:00:13;-1.00;99.90
5870;DHT22;2961;47.702;9.410;2023-02-21T02:02:59;-1.00;99.90
5870;DHT22;2961;47.702;9.410;2023-02-21T02:05:46;-0.90;99.90
5870;DHT22;2961;47.702;9.410;2023-02-21T02:08:33;-0.90;99.90
5870;DHT22;2961;47.702;9.410;2023-02-21T02:11:36;-1.00;99.90
5870;DHT22;2961;47.702;9.410;2023-02-21T02:14:44;-1.00;99.90
5870;DHT22;2961;47.702;9.410;2023-02-21T02:17:22;-1.00;99.90
5870;DHT22;2961;47.702;9.410;2023-02-21T02:20:18;-1.00;99.90
5870;DHT22;2961;47.702;9.410;2023-02-21T02:23:14;-1.00;99.90
5870;DHT22;2961;47.702;9.410;2023-02-21T02:26:15;-1.20;99.90
5870;DHT22;2961;47.702;9.410;2023-02-21T02:29:04;-1.30;99.90
5870;DHT22;2961;47.702;9.410;2023-02-21T02:31:48;-1.30;99.90
5870;DHT22;2961;47.702;9.410;2023-02-21T02:34:54;-1.20;99.90
5870;DHT22;2961;47.702;9.410;2023-02-21T02:37:24;-1.20;99.90
5870;DHT22;2961;47.702;9.410;2023-02-21T02:39:58;-1.20;99.90
5870;DHT22;2961;47.702;9.410;2023-02-21T02:42:37;-1.20;99.90
5870;DHT22;2961;47.702;9.410;2023-02-21T02:45:10;-1.30;99.90
5870;DHT22;2961;47.702;9.410;2023-02-21T02:47:42;-1.40;99.90
5870;DHT22;2961;47.702;9.410;2023-02-21T02:50:12;-1.50;99.90
5870;DHT22;2961;47.702;9.410;2023-02-21T02:52:49;-1.50;99.90
5870;DHT22;2961;47.702;9.410;2023-02-21T02:55:24;-1.60;99.90
5870;DHT22;2961;47.702;9.410;2023-02-21T02:57:54;-1.60;99.90
5870;DHT22;2961;47.702;9.410;2023-02-21T03:00:21;-1.50;99.90
5870;DHT22;2961;47.702;9.410;2023-02-21T03:02:59;-1.50;99.90
5870;DHT22;2961;47.702;9.410;2023-02-21T03:05:43;-1.40;99.90
5870;DHT22;2961;47.702;9.410;2023-02-21T03:08:20;-1.40;99.90
5870;DHT22;2961;47.702;9.410;2023-02-21T03:10:53;-1.50;99.90
5870;DHT22;2961;47.702;9.410;2023-02-21T03:13:32;-1.60;99.90
5870;DHT22;2961;47.702;9.410;2023-02-21T03:16:05;-1.70;99.90
5870;DHT22;2961;47.702;9.410;2023-02-21T03:18:41;-1.70;99.90
5870;DHT22;2961;47.702;9.410;2023-02-21T03:21:11;-1.70;99.90
5870;DHT22;2961;47.702;9.410;2023-02-21T03:23:42;-1.70;99.90
5870;DHT22;2961;47.702;9.410;2023-02-21T03:26:11;-1.70;99.90
5870;DHT22;2961;47.702;9.410;2023-02-21T03:28:40;-1.70;99.90
5870;DHT22;2961;47.702;9.410;2023-02-21T03:31:08;-1.60;99.90
5870;DHT22;2961;47.702;9.410;2023-02-21T03:33:36;-1.70;99.90
5870;DHT22;2961;47.702;9.410;2023-02-21T03:36:04;-1.80;99.90
5870;DHT22;2961;47.702;9.410;2023-02-21T03:38:51;-1.80;99.90
5870;DHT22;2961;47.702;9.410;2023-02-21T03:41:18;-1.80;99.90
5870;DHT22;2961;47.702;9.410;2023-02-21T03:43:45;-1.80;99.90
5870;DHT22;2961;47.702;9.410;2023-02-21T03:46:12;-1.70;99.90
5870;DHT22;2961;47.702;9.410;2023-02-21T03:48:39;-1.70;99.90
5870;DHT22;2961;47.702;9.410;2023-02-21T03:51:05;-1.60;99.90
5870;DHT22;2961;47.702;9.410;2023-02-21T03:53:32;-1.70;99.90
5870;DHT22;2961;47.702;9.410;2023-02-21T03:56:00;-1.90;99.90
5870;DHT22;2961;47.702;9.410;2023-02-21T03:58:27;-2.00;99.90
5870;DHT22;2961;47.702;9.410;2023-02-21T04:00:54;-1.90;99.90
5870;DHT22;2961;47.702;9.410;2023-02-21T04:03:22;-1.80;99.90
5870;DHT22;2961;47.702;9.410;2023-02-21T04:05:48;-1.90;99.90
5870;DHT22;2961;47.702;9.410;2023-02-21T04:08:16;-2.00;99.90
5870;DHT22;2961;47.702;9.410;2023-02-21T04:10:42;-2.10;99.90
5870;DHT22;2961;47.702;9.410;2023-02-21T04:13:12;-2.00;99.90
5870;DHT22;2961;47.702;9.410;2023-02-21T04:15:39;-2.00;99.90
5870;DHT22;2961;47.702;9.410;2023-02-21T04:18:05;-2.10;99.90
5870;DHT22;2961;47.702;9.410;2023-02-21T04:20:32;-2.10;99.90
5870;DHT22;2961;47.702;9.410;2023-02-21T04:22:59;-2.10;99.90
5870;DHT22;2961;47.702;9.410;2023-02-21T04:25:26;-2.20;99.90
5870;DHT22;2961;47.702;9.410;2023-02-21T04:27:53;-2.20;99.90
5870;DHT22;2961;47.702;9.410;2023-02-21T04:30:21;-2.20;99.90
5870;DHT22;2961;47.702;9.410;2023-02-21T04:32:48;-2.30;99.90
5870;DHT22;2961;47.702;9.410;2023-02-21T04:35:15;-2.20;99.90
5870;DHT22;2961;47.702;9.410;2023-02-21T04:37:42;-2.20;99.90
5870;DHT22;2961;47.702;9.410;2023-02-21T04:40:10;-2.20;99.90
5870;DHT22;2961;47.702;9.410;2023-02-21T04:42:37;-2.10;99.90
5870;DHT22;2961;47.702;9.410;2023-02-21T04:45:04;-2.20;99.90
5870;DHT22;2961;47.702;9.410;2023-02-21T04:47:32;-2.20;99.90
5870;DHT22;2961;47.702;9.410;2023-02-21T04:49:59;-2.20;99.90
5870;DHT22;2961;47.702;9.410;2023-02-21T04:52:26;-2.20;99.90
5870;DHT22;2961;47.702;9.410;2023-02-21T04:54:52;-2.20;99.90
5870;DHT22;2961;47.702;9.410;2023-02-21T04:57:19;-2.20;99.90
5870;DHT22;2961;47.702;9.410;2023-02-21T04:59:46;-2.30;99.90
5870;DHT22;2961;47.702;9.410;2023-02-21T05:02:13;-2.20;99.90
5870;DHT22;2961;47.702;9.410;2023-02-21T05:04:41;-2.10;99.90
5870;DHT22;2961;47.702;9.410;2023-02-21T05:07:08;-2.10;99.90
5870;DHT22;2961;47.702;9.410;2023-02-21T05:09:35;-2.10;99.90
5870;DHT22;2961;47.702;9.410;2023-02-21T05:12:02;-2.10;99.90
5870;DHT22;2961;47.702;9.410;2023-02-21T05:14:35;-2.10;99.90
5870;DHT22;2961;47.702;9.410;2023-02-21T05:17:02;-2.10;99.90
5870;DHT22;2961;47.702;9.410;2023-02-21T05:19:29;-2.10;99.90
5870;DHT22;2961;47.702;9.410;2023-02-21T05:21:59;-2.10;99.90
5870;DHT22;2961;47.702;9.410;2023-02-21T05:24:27;-2.10;99.90
5870;DHT22;2961;47.702;9.410;2023-02-21T05:26:54;-2.10;99.90
5870;DHT22;2961;47.702;9.410;2023-02-21T05:29:21;-2.10;99.90
5870;DHT22;2961;47.702;9.410;2023-02-21T05:31:48;-2.10;99.90
5870;DHT22;2961;47.702;9.410;2023-02-21T05:34:16;-2.10;99.90
5870;DHT22;2961;47.702;9.410;2023-02-21T05:36:44;-2.10;99.90
5870;DHT22;2961;47.702;9.410;2023-02-21T05:39:12;-2.00;99.90
5870;DHT22;2961;47.702;9.410;2023-02-21T05:41:46;-2.00;99.90
5870;DHT22;2961;47.702;9.410;2023-02-21T05:44:13;-2.00;99.90
5870;DHT22;2961;47.702;9.410;2023-02-21T05:46:40;-2.10;99.90
5870;DHT22;2961;47.702;9.410;2023-02-21T05:49:07;-2.10;99.90
5870;DHT22;2961;47.702;9.410;2023-02-21T05:51:35;-2.30;99.90
5870;DHT22;2961;47.702;9.410;2023-02-21T05:54:03;-2.30;99.90
5870;DHT22;2961;47.702;9.410;2023-02-21T05:56:37;-2.30;99.90
5870;DHT22;2961;47.702;9.410;2023-02-21T05:59:04;-2.30;99.90
5870;DHT22;2961;47.702;9.410;2023-02-21T06:01:31;-2.30;99.90
5870;DHT22;2961;47.702;9.410;2023-02-21T06:03:58;-2.20;99.90
5870;DHT22;2961;47.702;9.410;2023-02-21T06:06:24;-2.20;99.90
5870;DHT22;2961;47.702;9.410;2023-02-21T06:08:51;-2.30;99.90
5870;DHT22;2961;47.702;9.410;2023-02-21T06:11:22;-2.20;99.90
5870;DHT22;2961;47.702;9.410;2023-02-21T06:13:50;-2.30;99.90
5870;DHT22;2961;47.702;9.410;2023-02-21T06:16:17;-2.30;99.90
5870;DHT22;2961;47.702;9.410;2023-02-21T06:18:44;-2.30;99.90
5870;DHT22;2961;47.702;9.410;2023-02-21T06:21:15;-2.30;99.90
5870;DHT22;2961;47.702;9.410;2023-02-21T06:23:41;-2.30;99.90
5870;DHT22;2961;47.702;9.410;2023-02-21T06:26:08;-2.20;99.90
5870;DHT22;2961;47.702;9.410;2023-02-21T06:28:35;-2.20;99.90
5870;DHT22;2961;47.702;9.410;2023-02-21T06:31:04;-2.20;99.90
5870;DHT22;2961;47.702;9.410;2023-02-21T06:33:31;-2.10;99.90
5870;DHT22;2961;47.702;9.410;2023-02-21T06:35:58;-1.80;99.90
5870;DHT22;2961;47.702;9.410;2023-02-21T06:38:28;-1.70;99.90
5870;DHT22;2961;47.702;9.410;2023-02-21T06:40:55;-1.60;99.90
5870;DHT22;2961;47.702;9.410;2023-02-21T06:43:22;-1.60;99.90
5870;DHT22;2961;47.702;9.410;2023-02-21T06:45:48;-1.70;99.90
5870;DHT22;2961;47.702;9.410;2023-02-21T06:48:17;-1.70;99.90
5870;DHT22;2961;47.702;9.410;2023-02-21T06:50:44;-1.70;99.90
5870;DHT22;2961;47.702;9.410;2023-02-21T06:53:10;-1.60;99.90
5870;DHT22;2961;47.702;9.410;2023-02-21T06:55:37;-1.40;99.90
5870;DHT22;2961;47.702;9.410;2023-02-21T06:58:04;-1.30;99.90
5870;DHT22;2961;47.702;9.410;2023-02-21T07:00:31;-1.20;99.90
5870;DHT22;2961;47.702;9.410;2023-02-21T07:02:58;-1.00;99.90
5870;DHT22;2961;47.702;9.410;2023-02-21T07:05:26;-0.80;99.90
5870;DHT22;2961;47.702;9.410;2023-02-21T07:07:53;-0.70;99.90
5870;DHT22;2961;47.702;9.410;2023-02-21T07:10:41;-0.50;99.90
5870;DHT22;2961;47.702;9.410;2023-02-21T07:13:07;-0.40;99.90
5870;DHT22;2961;47.702;9.410;2023-02-21T07:15:34;-0.30;99.90
5870;DHT22;2961;47.702;9.410;2023-02-21T07:18:01;-0.20;99.90
5870;DHT22;2961;47.702;9.410;2023-02-21T07:20:29;0.00;99.90
5870;DHT22;2961;47.702;9.410;2023-02-21T07:22:57;0.00;99.90
5870;DHT22;2961;47.702;9.410;2023-02-21T07:28:09;0.50;99.90
5870;DHT22;2961;47.702;9.410;2023-02-21T07:30:36;0.40;99.90
5870;DHT22;2961;47.702;9.410;2023-02-21T07:33:03;0.60;99.90
5870;DHT22;2961;47.702;9.410;2023-02-21T07:35:31;0.80;99.90
5870;DHT22;2961;47.702;9.410;2023-02-21T07:37:58;0.60;99.90
5870;DHT22;2961;47.702;9.410;2023-02-21T07:40:25;1.10;99.90
5870;DHT22;2961;47.702;9.410;2023-02-21T07:42:51;1.10;99.90
5870;DHT22;2961;47.702;9.410;2023-02-21T07:45:18;1.70;99.90
5870;DHT22;2961;47.702;9.410;2023-02-21T07:47:45;1.90;99.90
5870;DHT22;2961;47.702;9.410;2023-02-21T07:50:15;2.30;99.90
5870;DHT22;2961;47.702;9.410;2023-02-21T07:52:44;2.20;99.90
5870;DHT22;2961;47.702;9.410;2023-02-21T07:55:11;2.20;99.90
5870;DHT22;2961;47.702;9.410;2023-02-21T07:57:38;2.50;99.90
5870;DHT22;2961;47.702;9.410;2023-02-21T08:00:05;2.50;99.90
5870;DHT22;2961;47.702;9.410;2023-02-21T08:02:32;2.60;99.90
5870;DHT22;2961;47.702;9.410;2023-02-21T08:04:59;2.60;99.90
5870;DHT22;2961;47.702;9.410;2023-02-21T08:07:26;2.60;99.90
5870;DHT22;2961;47.702;9.410;2023-02-21T08:09:54;2.60;99.90
5870;DHT22;2961;47.702;9.410;2023-02-21T08:12:21;2.50;99.90
5870;DHT22;2961;47.702;9.410;2023-02-21T08:14:47;2.60;99.90
5870;DHT22;2961;47.702;9.410;2023-02-21T08:17:15;2.60;99.90
5870;DHT22;2961;47.702;9.410;2023-02-21T08:19:42;2.50;99.90
5870;DHT22;2961;47.702;9.410;2023-02-21T08:22:08;2.40;99.90
5870;DHT22;2961;47.702;9.410;2023-02-21T08:24:35;2.40;99.90
5870;DHT22;2961;47.702;9.410;2023-02-21T08:27:03;2.50;99.90
5870;DHT22;2961;47.702;9.410;2023-02-21T08:29:30;2.30;99.90
5870;DHT22;2961;47.702;9.410;2023-02-21T08:31:57;2.50;99.90
5870;DHT22;2961;47.702;9.410;2023-02-21T08:34:24;2.60;99.90
5870;DHT22;2961;47.702;9.410;2023-02-21T08:36:54;2.50;99.90
5870;DHT22;2961;47.702;9.410;2023-02-21T08:39:21;2.70;99.90
5870;DHT22;2961;47.702;9.410;2023-02-21T08:41:47;2.60;99.90
5870;DHT22;2961;47.702;9.410;2023-02-21T08:44:17;2.70;99.90
5870;DHT22;2961;47.702;9.410;2023-02-21T08:46:46;2.70;99.90
5870;DHT22;2961;47.702;9.410;2023-02-21T08:49:13;2.70;99.90
5870;DHT22;2961;47.702;9.410;2023-02-21T08:51:40;2.80;99.90
5870;DHT22;2961;47.702;9.410;2023-02-21T08:54:06;3.00;99.90
5870;DHT22;2961;47.702;9.410;2023-02-21T08:56:33;2.90;99.90
5870;DHT22;2961;47.702;9.410;2023-02-21T08:59:00;3.20;99.90
5870;DHT22;2961;47.702;9.410;2023-02-21T09:01:32;3.40;99.90
5870;DHT22;2961;47.702;9.410;2023-02-21T09:03:59;3.30;99.90
5870;DHT22;2961;47.702;9.410;2023-02-21T09:06:26;3.40;99.90
5870;DHT22;2961;47.702;9.410;2023-02-21T09:08:52;3.70;99.90
5870;DHT22;2961;47.702;9.410;2023-02-21T09:11:19;3.50;99.90
5870;DHT22;2961;47.702;9.410;2023-02-21T09:13:46;3.90;99.90
5870;DHT22;2961;47.702;9.410;2023-02-21T09:16:13;3.80;99.90
5870;DHT22;2961;47.702;9.410;2023-02-21T09:18:41;3.80;99.90
5870;DHT22;2961;47.702;9.410;2023-02-21T09:21:08;4.10;99.90
5870;DHT22;2961;47.702;9.410;2023-02-21T09:23:35;4.30;99.90
5870;DHT22;2961;47.702;9.410;2023-02-21T09:26:01;4.40;99.90
5870;DHT22;2961;47.702;9.410;2023-02-21T09:28:28;4.60;99.90
5870;DHT22;2961;47.702;9.410;2023-02-21T09:30:56;4.70;99.90
5870;DHT22;2961;47.702;9.410;2023-02-21T09:33:22;4.80;99.90
5870;DHT22;2961;47.702;9.410;2023-02-21T09:35:51;4.70;99.90
5870;DHT22;2961;47.702;9.410;2023-02-21T09:38:18;4.90;99.90
5870;DHT22;2961;47.702;9.410;2023-02-21T09:40:47;5.20;99.90
5870;DHT22;2961;47.702;9.410;2023-02-21T09:43:19;5.20;99.90
5870;DHT22;2961;47.702;9.410;2023-02-21T09:45:48;5.30;99.90
5870;DHT22;2961;47.702;9.410;2023-02-21T09:48:18;5.50;99.90
5870;DHT22;2961;47.702;9.410;2023-02-21T09:50:49;5.60;99.90
5870;DHT22;2961;47.702;9.410;2023-02-21T09:53:20;5.70;99.90
5870;DHT22;2961;47.702;9.410;2023-02-21T09:55:49;5.80;99.90
5870;DHT22;2961;47.702;9.410;2023-02-21T09:58:19;5.80;99.90
5870;DHT22;2961;47.702;9.410;2023-02-21T10:00:46;5.80;99.90
5870;DHT22;2961;47.702;9.410;2023-02-21T10:03:37;5.90;99.90
5870;DHT22;2961;47.702;9.410;2023-02-21T10:06:12;6.00;99.90
5870;DHT22;2961;47.702;9.410;2023-02-21T10:08:48;6.10;99.90
5870;DHT22;2961;47.702;9.410;2023-02-21T10:11:35;6.30;99.90
5870;DHT22;2961;47.702;9.410;2023-02-21T10:14:12;6.40;99.90
5870;DHT22;2961;47.702;9.410;2023-02-21T10:16:47;6.50;99.90
5870;DHT22;2961;47.702;9.410;2023-02-21T10:19:20;6.60;99.90
5870;DHT22;2961;47.702;9.410;2023-02-21T10:21:52;6.70;99.90
5870;DHT22;2961;47.702;9.410;2023-02-21T10:24:22;6.70;99.90
5870;DHT22;2961;47.702;9.410;2023-02-21T10:26:55;6.80;99.90
5870;DHT22;2961;47.702;9.410;2023-02-21T10:29:26;6.90;99.90
5870;DHT22;2961;47.702;9.410;2023-02-21T10:31:58;6.90;99.90
5870;DHT22;2961;47.702;9.410;2023-02-21T10:34:29;6.90;99.90
5870;DHT22;2961;47.702;9.410;2023-02-21T10:37:01;7.00;99.90
5870;DHT22;2961;47.702;9.410;2023-02-21T10:39:34;7.10;99.90
5870;DHT22;2961;47.702;9.410;2023-02-21T10:42:03;7.20;99.90
5870;DHT22;2961;47.702;9.410;2023-02-21T10:44:34;7.40;99.90
5870;DHT22;2961;47.702;9.410;2023-02-21T10:47:05;7.60;99.90
5870;DHT22;2961;47.702;9.410;2023-02-21T10:49:39;7.70;99.90
5870;DHT22;2961;47.702;9.410;2023-02-21T10:52:11;7.80;99.90
5870;DHT22;2961;47.702;9.410;2023-02-21T10:54:40;7.80;99.90
5870;DHT22;2961;47.702;9.410;2023-02-21T10:57:09;7.90;99.90
5870;DHT22;2961;47.702;9.410;2023-02-21T10:59:40;8.00;99.90
5870;DHT22;2961;47.702;9.410;2023-02-21T11:02:27;8.10;99.90
5870;DHT22;2961;47.702;9.410;2023-02-21T11:04:55;8.20;99.90
5870;DHT22;2961;47.702;9.410;2023-02-21T11:07:32;8.30;99.90
5870;DHT22;2961;47.702;9.410;2023-02-21T11:10:01;8.30;99.90
5870;DHT22;2961;47.702;9.410;2023-02-21T11:12:28;8.40;99.90
5870;DHT22;2961;47.702;9.410;2023-02-21T11:15:17;8.40;99.90
5870;DHT22;2961;47.702;9.410;2023-02-21T11:17:44;8.50;99.90
5870;DHT22;2961;47.702;9.410;2023-02-21T11:20:16;8.50;99.90
5870;DHT22;2961;47.702;9.410;2023-02-21T11:22:45;8.50;99.90
5870;DHT22;2961;47.702;9.410;2023-02-21T11:25:20;8.60;99.90
5870;DHT22;2961;47.702;9.410;2023-02-21T11:28:03;8.70;99.90
5870;DHT22;2961;47.702;9.410;2023-02-21T11:30:32;8.80;99.90
5870;DHT22;2961;47.702;9.410;2023-02-21T11:33:00;9.00;99.90
5870;DHT22;2961;47.702;9.410;2023-02-21T11:35:32;9.10;99.90
5870;DHT22;2961;47.702;9.410;2023-02-21T11:38:02;9.00;99.90
5870;DHT22;2961;47.702;9.410;2023-02-21T11:40:39;9.10;99.90
5870;DHT22;2961;47.702;9.410;2023-02-21T11:43:24;9.20;99.90
5870;DHT22;2961;47.702;9.410;2023-02-21T11:46:14;9.20;99.90
5870;DHT22;2961;47.702;9.410;2023-02-21T11:49:04;9.20;99.90
5870;DHT22;2961;47.702;9.410;2023-02-21T11:51:37;9.30;99.90
5870;DHT22;2961;47.702;9.410;2023-02-21T11:54:05;9.30;99.90
5870;DHT22;2961;47.702;9.410;2023-02-21T11:56:50;9.40;99.90
5870;DHT22;2961;47.702;9.410;2023-02-21T11:59:28;9.60;99.90
5870;DHT22;2961;47.702;9.410;2023-02-21T12:02:13;9.70;99.90
5870;DHT22;2961;47.702;9.410;2023-02-21T12:04:55;9.80;99.90
5870;DHT22;2961;47.702;9.410;2023-02-21T12:07:33;9.80;99.90
5870;DHT22;2961;47.702;9.410;2023-02-21T12:10:08;9.90;99.90
5870;DHT22;2961;47.702;9.410;2023-02-21T12:12:51;9.80;99.90
5870;DHT22;2961;47.702;9.410;2023-02-21T12:15:24;9.90;99.90
5870;DHT22;2961;47.702;9.410;2023-02-21T12:18:02;10.00;99.90
5870;DHT22;2961;47.702;9.410;2023-02-21T12:20:46;9.90;99.90
5870;DHT22;2961;47.702;9.410;2023-02-21T12:23:21;10.00;99.90
5870;DHT22;2961;47.702;9.410;2023-02-21T12:28:58;10.30;99.90
5870;DHT22;2961;47.702;9.410;2023-02-21T12:31:36;10.40;99.90
5870;DHT22;2961;47.702;9.410;2023-02-21T12:34:13;10.40;99.90
5870;DHT22;2961;47.702;9.410;2023-02-21T12:37:16;10.60;99.90
5870;DHT22;2961;47.702;9.410;2023-02-21T12:39:58;10.70;99.90
5870;DHT22;2961;47.702;9.410;2023-02-21T12:42:50;10.70;99.90
5870;DHT22;2961;47.702;9.410;2023-02-21T12:45:33;10.80;99.90
5870;DHT22;2961;47.702;9.410;2023-02-21T12:48:08;10.90;99.90
5870;DHT22;2961;47.702;9.410;2023-02-21T12:50:40;10.80;99.90
5870;DHT22;2961;47.702;9.410;2023-02-21T12:53:12;10.90;99.90
5870;DHT22;2961;47.702;9.410;2023-02-21T12:58:32;11.00;99.90
5870;DHT22;2961;47.702;9.410;2023-02-21T13:01:05;11.10;99.90
5870;DHT22;2961;47.702;9.410;2023-02-21T13:03:44;11.20;99.90
5870;DHT22;2961;47.702;9.410;2023-02-21T13:06:18;11.20;99.90
5870;DHT22;2961;47.702;9.410;2023-02-21T13:08:58;11.30;99.90
5870;DHT22;2961;47.702;9.410;2023-02-21T13:11:31;11.40;99.90
5870;DHT22;2961;47.702;9.410;2023-02-21T13:14:01;11.40;99.90
5870;DHT22;2961;47.702;9.410;2023-02-21T13:16:30;11.40;99.90
5870;DHT22;2961;47.702;9.410;2023-02-21T13:19:00;11.40;99.90
5870;DHT22;2961;47.702;9.410;2023-02-21T13:21:42;11.30;99.90
5870;DHT22;2961;47.702;9.410;2023-02-21T13:24:21;11.20;99.90
5870;DHT22;2961;47.702;9.410;2023-02-21T13:29:42;11.10;99.90
5870;DHT22;2961;47.702;9.410;2023-02-21T13:32:13;11.10;99.90
5870;DHT22;2961;47.702;9.410;2023-02-21T13:34:43;11.10;99.90
5870;DHT22;2961;47.702;9.410;2023-02-21T13:37:15;11.00;99.90
5870;DHT22;2961;47.702;9.410;2023-02-21T13:39:45;11.10;99.90
5870;DHT22;2961;47.702;9.410;2023-02-21T13:42:19;11.10;99.90
5870;DHT22;2961;47.702;9.410;2023-02-21T13:44:48;11.10;99.90
5870;DHT22;2961;47.702;9.410;2023-02-21T13:47:18;11.10;99.90
5870;DHT22;2961;47.702;9.410;2023-02-21T13:49:53;11.00;99.90
5870;DHT22;2961;47.702;9.410;2023-02-21T13:52:51;11.00;99.90
5870;DHT22;2961;47.702;9.410;2023-02-21T13:55:37;11.00;99.90
5870;DHT22;2961;47.702;9.410;2023-02-21T13:58:28;11.00;99.90
5870;DHT22;2961;47.702;9.410;2023-02-21T14:00:56;11.10;99.90
5870;DHT22;2961;47.702;9.410;2023-02-21T14:03:40;11.20;99.90
5870;DHT22;2961;47.702;9.410;2023-02-21T14:06:31;11.30;99.90
5870;DHT22;2961;47.702;9.410;2023-02-21T14:09:01;11.20;99.90
5870;DHT22;2961;47.702;9.410;2023-02-21T14:11:35;11.20;99.90
5870;DHT22;2961;47.702;9.410;2023-02-21T14:14:05;11.20;99.90
5870;DHT22;2961;47.702;9.410;2023-02-21T14:16:47;11.30;99.90
5870;DHT22;2961;47.702;9.410;2023-02-21T14:19:22;11.30;99.90
5870;DHT22;2961;47.702;9.410;2023-02-21T14:21:58;11.40;99.90
5870;DHT22;2961;47.702;9.410;2023-02-21T14:24:30;11.30;99.90
5870;DHT22;2961;47.702;9.410;2023-02-21T14:27:02;11.30;99.90
5870;DHT22;2961;47.702;9.410;2023-02-21T14:29:38;11.30;99.90
5870;DHT22;2961;47.702;9.410;2023-02-21T14:32:23;11.20;99.90
5870;DHT22;2961;47.702;9.410;2023-02-21T14:34:55;11.20;99.90
5870;DHT22;2961;47.702;9.410;2023-02-21T14:37:25;11.20;99.90
5870;DHT22;2961;47.702;9.410;2023-02-21T14:39:55;11.10;99.90
5870;DHT22;2961;47.702;9.410;2023-02-21T14:42:38;11.10;99.90
5870;DHT22;2961;47.702;9.410;2023-02-21T14:45:27;11.10;99.90
5870;DHT22;2961;47.702;9.410;2023-02-21T14:48:03;11.10;99.90
5870;DHT22;2961;47.702;9.410;2023-02-21T14:50:45;11.20;99.90
5870;DHT22;2961;47.702;9.410;2023-02-21T14:53:50;11.30;99.90
5870;DHT22;2961;47.702;9.410;2023-02-21T14:56:46;11.20;99.90
5870;DHT22;2961;47.702;9.410;2023-02-21T14:59:31;11.20;99.90
5870;DHT22;2961;47.702;9.410;2023-02-21T15:02:13;11.30;99.90
5870;DHT22;2961;47.702;9.410;2023-02-21T15:04:47;11.30;99.90
5870;DHT22;2961;47.702;9.410;2023-02-21T15:07:20;11.30;99.90
5870;DHT22;2961;47.702;9.410;2023-02-21T15:10:21;11.40;99.90
5870;DHT22;2961;47.702;9.410;2023-02-21T15:12:50;11.40;99.90
5870;DHT22;2961;47.702;9.410;2023-02-21T15:15:21;11.40;99.90
5870;DHT22;2961;47.702;9.410;2023-02-21T15:18:01;11.40;99.90
5870;DHT22;2961;47.702;9.410;2023-02-21T15:20:29;11.40;99.90
5870;DHT22;2961;47.702;9.410;2023-02-21T15:23:03;11.40;99.90
5870;DHT22;2961;47.702;9.410;2023-02-21T15:25:36;11.40;99.90
5870;DHT22;2961;47.702;9.410;2023-02-21T15:28:05;11.30;99.90
5870;DHT22;2961;47.702;9.410;2023-02-21T15:30:38;11.30;99.90
5870;DHT22;2961;47.702;9.410;2023-02-21T15:33:10;11.30;99.90
5870;DHT22;2961;47.702;9.410;2023-02-21T15:35:41;11.30;99.90
5870;DHT22;2961;47.702;9.410;2023-02-21T15:38:15;11.30;99.90
5870;DHT22;2961;47.702;9.410;2023-02-21T15:40:43;11.30;99.90
5870;DHT22;2961;47.702;9.410;2023-02-21T15:43:29;11.20;99.90
5870;DHT22;2961;47.702;9.410;2023-02-21T15:45:59;11.10;99.90
5870;DHT22;2961;47.702;9.410;2023-02-21T15:48:27;11.10;99.90
5870;DHT22;2961;47.702;9.410;2023-02-21T15:50:54;11.00;99.90
5870;DHT22;2961;47.702;9.410;2023-02-21T15:53:27;10.90;99.90
5870;DHT22;2961;47.702;9.410;2023-02-21T15:56:15;10.80;99.90
5870;DHT22;2961;47.702;9.410;2023-02-21T15:59:01;10.60;99.90
5870;DHT22;2961;47.702;9.410;2023-02-21T16:01:28;10.50;99.90
5870;DHT22;2961;47.702;9.410;2023-02-21T16:04:13;10.40;99.90
5870;DHT22;2961;47.702;9.410;2023-02-21T16:06:49;10.20;99.90
5870;DHT22;2961;47.702;9.410;2023-02-21T16:09:24;10.00;99.90
5870;DHT22;2961;47.702;9.410;2023-02-21T16:11:55;9.90;99.90
5870;DHT22;2961;47.702;9.410;2023-02-21T16:14:27;9.80;99.90
5870;DHT22;2961;47.702;9.410;2023-02-21T16:17:08;9.70;99.90
5870;DHT22;2961;47.702;9.410;2023-02-21T16:19:39;9.60;99.90
5870;DHT22;2961;47.702;9.410;2023-02-21T16:22:12;9.50;99.90
5870;DHT22;2961;47.702;9.410;2023-02-21T16:24:40;9.40;99.90
5870;DHT22;2961;47.702;9.410;2023-02-21T16:27:10;9.30;99.90
5870;DHT22;2961;47.702;9.410;2023-02-21T16:29:38;9.20;99.90
5870;DHT22;2961;47.702;9.410;2023-02-21T16:32:05;9.10;99.90
5870;DHT22;2961;47.702;9.410;2023-02-21T16:34:33;8.90;99.90
5870;DHT22;2961;47.702;9.410;2023-02-21T16:37:02;8.70;99.90
5870;DHT22;2961;47.702;9.410;2023-02-21T16:39:30;8.50;99.90
5870;DHT22;2961;47.702;9.410;2023-02-21T16:41:58;8.40;99.90
5870;DHT22;2961;47.702;9.410;2023-02-21T16:44:25;8.20;99.90
5870;DHT22;2961;47.702;9.410;2023-02-21T16:46:52;8.00;99.90
5870;DHT22;2961;47.702;9.410;2023-02-21T16:49:19;7.80;99.90
5870;DHT22;2961;47.702;9.410;2023-02-21T16:51:46;7.70;99.90
5870;DHT22;2961;47.702;9.410;2023-02-21T16:54:13;7.50;99.90
5870;DHT22;2961;47.702;9.410;2023-02-21T16:56:41;7.40;99.90
5870;DHT22;2961;47.702;9.410;2023-02-21T16:59:13;7.20;99.90
5870;DHT22;2961;47.702;9.410;2023-02-21T17:01:41;7.10;99.90